Time;durP1;ratioP1;P1;durP2;ratioP2;P2;SDS_P1;SDS_P2;PMS_P1;PMS_P2;Temp;Humidity;BMP_temperature;BMP_pressure;BME280_temperature;BME280_humidity;BME280_pressure;Samples;Min_cycle;Max_cycle;Signal;HPM_P1;HPM_P2
2023/08/31 00:00:04;;;;;;;22.20;16.30;;;;;;;-128.00;-1.00;-1.00;105627;1256;1003771;-80
2023/08/31 00:02:30;;;;;;;21.20;15.60;;;;;;;-128.00;-1.00;-1.00;105628;1251;1059064;-80
2023/08/31 00:04:58;;;;;;;25.50;17.00;;;;;;;-128.00;-1.00;-1.00;105582;1251;1004096;-80
2023/08/31 00:07:24;;;;;;;20.40;15.50;;;;;;;-128.00;-1.00;-1.00;105585;1251;1004359;-80
2023/08/31 00:09:51;;;;;;;18.00;13.90;;;;;;;-128.00;-1.00;-1.00;105625;1251;1004605;-80
2023/08/31 00:12:17;;;;;;;21.80;14.40;;;;;;;-128.00;-1.00;-1.00;105517;1251;1004882;-80
2023/08/31 00:14:44;;;;;;;20.20;13.80;;;;;;;-128.00;-1.00;-1.00;105620;1251;1004329;-80
2023/08/31 00:17:10;;;;;;;25.60;14.70;;;;;;;-128.00;-1.00;-1.00;105614;1251;1003861;-80
2023/08/31 00:19:37;;;;;;;19.00;13.40;;;;;;;-128.00;-1.00;-1.00;105642;1251;1003996;-80
2023/08/31 00:22:04;;;;;;;21.60;14.50;;;;;;;-128.00;-1.00;-1.00;105643;1256;1004754;-80
2023/08/31 00:24:33;;;;;;;25.20;15.70;;;;;;;-128.00;-1.00;-1.00;105643;1252;1005102;-80
2023/08/31 00:27:00;;;;;;;24.30;15.00;;;;;;;-128.00;-1.00;-1.00;105624;1255;1060102;-80
2023/08/31 00:29:27;;;;;;;25.90;16.80;;;;;;;-128.00;-1.00;-1.00;105603;1255;1004655;-80
2023/08/31 00:31:53;;;;;;;23.50;17.00;;;;;;;-128.00;-1.00;-1.00;105617;1251;1004654;-80
2023/08/31 00:34:20;;;;;;;21.20;13.70;;;;;;;-128.00;-1.00;-1.00;105618;1255;1005169;-80
2023/08/31 00:36:46;;;;;;;26.00;17.10;;;;;;;-128.00;-1.00;-1.00;105619;1251;1003864;-80
2023/08/31 00:39:13;;;;;;;24.00;17.40;;;;;;;-128.00;-1.00;-1.00;105573;1251;1005000;-80
2023/08/31 00:41:39;;;;;;;22.10;16.00;;;;;;;-128.00;-1.00;-1.00;105590;1251;1004244;-80
2023/08/31 00:44:06;;;;;;;23.10;17.50;;;;;;;-128.00;-1.00;-1.00;105611;1251;1004566;-80
2023/08/31 00:46:34;;;;;;;25.80;17.10;;;;;;;-128.00;-1.00;-1.00;105597;1251;1003920;-80
2023/08/31 00:49:00;;;;;;;28.40;17.30;;;;;;;-128.00;-1.00;-1.00;105583;1256;1004943;-80
2023/08/31 00:51:27;;;;;;;22.00;16.20;;;;;;;-128.00;-1.00;-1.00;105615;1251;1003416;-80
2023/08/31 00:53:54;;;;;;;28.90;16.10;;;;;;;-128.00;-1.00;-1.00;105604;1255;1004848;-80
2023/08/31 00:56:21;;;;;;;27.60;17.80;;;;;;;-128.00;-1.00;-1.00;105609;1255;1004650;-80
2023/08/31 00:58:47;;;;;;;23.60;17.00;;;;;;;-128.00;-1.00;-1.00;105610;1251;1004785;-79
2023/08/31 01:01:37;;;;;;;23.00;16.40;;;;;;;-128.00;-1.00;-1.00;105601;1251;1004599;-79
2023/08/31 01:04:13;;;;;;;28.60;17.10;;;;;;;-128.00;-1.00;-1.00;105682;1251;1059461;-80
2023/08/31 01:07:02;;;;;;;25.80;15.30;;;;;;;-128.00;-1.00;-1.00;105592;1255;1046197;-80
2023/08/31 01:09:29;;;;;;;25.50;17.10;;;;;;;-128.00;-1.00;-1.00;105558;1251;1046970;-81
2023/08/31 01:12:35;;;;;;;23.90;16.20;;;;;;;-128.00;-1.00;-1.00;105479;1251;1004641;-80
2023/08/31 01:15:07;;;;;;;23.60;14.20;;;;;;;-128.00;-1.00;-1.00;105527;1252;1059654;-80
2023/08/31 01:17:38;;;;;;;23.70;14.50;;;;;;;-128.00;-1.00;-1.00;105471;1251;1059308;-80
2023/08/31 01:20:06;;;;;;;23.40;16.10;;;;;;;-128.00;-1.00;-1.00;105328;1251;1046092;-80
2023/08/31 01:22:35;;;;;;;25.70;16.10;;;;;;;-128.00;-1.00;-1.00;105338;1251;1005257;-80
2023/08/31 01:25:04;;;;;;;23.40;16.40;;;;;;;-128.00;-1.00;-1.00;105633;1251;1061970;-80
2023/08/31 01:27:31;;;;;;;23.60;16.10;;;;;;;-128.00;-1.00;-1.00;105604;1251;1004366;-80
2023/08/31 01:29:58;;;;;;;24.20;15.90;;;;;;;-128.00;-1.00;-1.00;105604;1251;1003662;-80
2023/08/31 01:32:25;;;;;;;22.70;15.40;;;;;;;-128.00;-1.00;-1.00;105594;1251;1003566;-80
2023/08/31 01:34:54;;;;;;;28.00;15.60;;;;;;;-128.00;-1.00;-1.00;105602;1251;1004356;-80
2023/08/31 01:37:43;;;;;;;24.50;16.00;;;;;;;-128.00;-1.00;-1.00;105577;1251;1061061;-80
2023/08/31 01:40:23;;;;;;;23.60;14.50;;;;;;;-128.00;-1.00;-1.00;105587;1251;1057481;-80
2023/08/31 01:42:49;;;;;;;22.80;15.70;;;;;;;-128.00;-1.00;-1.00;105666;1251;1058715;-80
2023/08/31 01:45:20;;;;;;;22.70;15.10;;;;;;;-128.00;-1.00;-1.00;105491;1251;1004453;-80
2023/08/31 01:47:46;;;;;;;25.00;15.80;;;;;;;-128.00;-1.00;-1.00;105612;1251;1047942;-81
2023/08/31 01:50:13;;;;;;;22.80;14.70;;;;;;;-128.00;-1.00;-1.00;105607;1250;1004277;-80
2023/08/31 01:52:40;;;;;;;21.10;15.00;;;;;;;-128.00;-1.00;-1.00;105693;1251;1004818;-80
2023/08/31 01:55:06;;;;;;;22.50;15.20;;;;;;;-128.00;-1.00;-1.00;105594;1251;1004731;-80
2023/08/31 01:57:33;;;;;;;20.80;13.30;;;;;;;-128.00;-1.00;-1.00;105507;1252;1005619;-80
2023/08/31 02:00:00;;;;;;;19.70;12.60;;;;;;;-128.00;-1.00;-1.00;105628;1251;1003931;-80
2023/08/31 02:02:27;;;;;;;20.20;13.70;;;;;;;-128.00;-1.00;-1.00;105609;1251;1005124;-80
2023/08/31 02:04:53;;;;;;;24.30;15.60;;;;;;;-128.00;-1.00;-1.00;105639;1251;1003714;-80
2023/08/31 02:07:20;;;;;;;25.20;16.00;;;;;;;-128.00;-1.00;-1.00;105616;1251;1003592;-80
2023/08/31 02:09:46;;;;;;;22.00;15.60;;;;;;;-128.00;-1.00;-1.00;105484;1251;1004265;-80
2023/08/31 02:12:13;;;;;;;25.90;15.10;;;;;;;-128.00;-1.00;-1.00;105667;1251;1003880;-80
2023/08/31 02:14:39;;;;;;;20.60;15.00;;;;;;;-128.00;-1.00;-1.00;105597;1251;1004696;-79
2023/08/31 02:17:05;;;;;;;26.20;14.60;;;;;;;-128.00;-1.00;-1.00;105579;1251;1003999;-80
2023/08/31 02:19:32;;;;;;;22.50;14.20;;;;;;;-128.00;-1.00;-1.00;105494;1254;1004552;-79
2023/08/31 02:21:58;;;;;;;18.30;13.20;;;;;;;-128.00;-1.00;-1.00;105491;1254;1004235;-80
2023/08/31 02:24:25;;;;;;;21.00;14.10;;;;;;;-128.00;-1.00;-1.00;105519;1254;1003423;-80
2023/08/31 02:26:51;;;;;;;28.80;14.30;;;;;;;-128.00;-1.00;-1.00;105514;1254;1003526;-80
2023/08/31 02:29:18;;;;;;;22.40;14.40;;;;;;;-128.00;-1.00;-1.00;105524;1253;1004118;-80
2023/08/31 02:31:45;;;;;;;20.40;14.10;;;;;;;-128.00;-1.00;-1.00;105311;1253;1003783;-81
2023/08/31 02:34:11;;;;;;;35.40;20.80;;;;;;;-128.00;-1.00;-1.00;105512;1253;1004681;-80
2023/08/31 02:36:38;;;;;;;24.70;17.40;;;;;;;-128.00;-1.00;-1.00;105499;1254;1004572;-80
2023/08/31 02:39:04;;;;;;;24.80;15.40;;;;;;;-128.00;-1.00;-1.00;105410;1253;1004993;-81
2023/08/31 02:41:31;;;;;;;21.70;14.00;;;;;;;-128.00;-1.00;-1.00;105597;1251;1004165;-79
2023/08/31 02:43:58;;;;;;;25.40;14.30;;;;;;;-128.00;-1.00;-1.00;105642;1251;1004079;-79
2023/08/31 02:46:24;;;;;;;20.70;12.90;;;;;;;-128.00;-1.00;-1.00;105556;1251;1003775;-79
2023/08/31 02:48:51;;;;;;;23.20;14.70;;;;;;;-128.00;-1.00;-1.00;105641;1251;1005142;-80
2023/08/31 02:51:17;;;;;;;21.30;12.70;;;;;;;-128.00;-1.00;-1.00;105614;1251;1004386;-80
2023/08/31 02:53:44;;;;;;;23.60;12.60;;;;;;;-128.00;-1.00;-1.00;105510;1251;1003779;-80
2023/08/31 02:56:10;;;;;;;20.50;12.10;;;;;;;-128.00;-1.00;-1.00;105632;1251;1005279;-80
2023/08/31 02:58:37;;;;;;;18.40;12.60;;;;;;;-128.00;-1.00;-1.00;105621;1251;1004161;-80
2023/08/31 03:01:08;;;;;;;20.70;11.90;;;;;;;-128.00;-1.00;-1.00;105780;1251;1005127;-80
2023/08/31 03:03:35;;;;;;;18.60;11.80;;;;;;;-128.00;-1.00;-1.00;105749;1251;1061373;-80
2023/08/31 03:06:02;;;;;;;16.00;11.00;;;;;;;-128.00;-1.00;-1.00;105761;1251;1003999;-80
2023/08/31 03:08:28;;;;;;;17.80;11.60;;;;;;;-128.00;-1.00;-1.00;105800;1251;1003826;-80
2023/08/31 03:10:56;;;;;;;24.40;13.40;;;;;;;-128.00;-1.00;-1.00;105494;1251;1003885;-80
2023/08/31 03:13:23;;;;;;;30.40;20.00;;;;;;;-128.00;-1.00;-1.00;105648;1251;1004878;-80
2023/08/31 03:15:49;;;;;;;17.30;13.30;;;;;;;-128.00;-1.00;-1.00;105622;1251;1005433;-80
2023/08/31 03:18:15;;;;;;;21.20;12.20;;;;;;;-128.00;-1.00;-1.00;105706;1251;1004949;-80
2023/08/31 03:20:42;;;;;;;17.70;12.10;;;;;;;-128.00;-1.00;-1.00;105687;1251;1004594;-80
2023/08/31 03:23:10;;;;;;;21.40;11.50;;;;;;;-128.00;-1.00;-1.00;105658;1251;1005137;-80
2023/08/31 03:25:37;;;;;;;15.90;12.60;;;;;;;-128.00;-1.00;-1.00;105745;1251;1046720;-80
2023/08/31 03:28:04;;;;;;;19.50;11.90;;;;;;;-128.00;-1.00;-1.00;105720;1249;1003625;-80
2023/08/31 03:30:30;;;;;;;23.40;13.70;;;;;;;-128.00;-1.00;-1.00;105739;1251;1004031;-80
2023/08/31 03:32:57;;;;;;;19.10;13.50;;;;;;;-128.00;-1.00;-1.00;105720;1251;1005223;-80
2023/08/31 03:35:26;;;;;;;22.00;12.10;;;;;;;-128.00;-1.00;-1.00;105713;1251;1004488;-80
2023/08/31 03:37:53;;;;;;;19.40;13.10;;;;;;;-128.00;-1.00;-1.00;105718;1250;1048042;-80
2023/08/31 03:40:19;;;;;;;15.00;11.00;;;;;;;-128.00;-1.00;-1.00;105722;1251;1003859;-80
2023/08/31 03:42:46;;;;;;;20.90;11.80;;;;;;;-128.00;-1.00;-1.00;105527;1251;1003567;-81
2023/08/31 03:45:12;;;;;;;20.20;12.20;;;;;;;-128.00;-1.00;-1.00;105666;1251;1005263;-80
2023/08/31 03:47:39;;;;;;;19.80;12.80;;;;;;;-128.00;-1.00;-1.00;105520;1251;1003567;-82
2023/08/31 03:50:06;;;;;;;18.00;11.00;;;;;;;-128.00;-1.00;-1.00;105701;1250;1003694;-80
2023/08/31 03:52:32;;;;;;;17.80;11.60;;;;;;;-128.00;-1.00;-1.00;105830;1251;1003417;-80
2023/08/31 03:54:59;;;;;;;18.40;12.40;;;;;;;-128.00;-1.00;-1.00;105821;1251;1003718;-80
2023/08/31 03:57:25;;;;;;;15.90;10.20;;;;;;;-128.00;-1.00;-1.00;105653;1251;1004607;-80
2023/08/31 03:59:52;;;;;;;16.40;11.10;;;;;;;-128.00;-1.00;-1.00;105632;1251;1004076;-79
2023/08/31 04:02:18;;;;;;;21.60;11.30;;;;;;;-128.00;-1.00;-1.00;105640;1251;1004662;-80
2023/08/31 04:04:45;;;;;;;19.60;11.60;;;;;;;-128.00;-1.00;-1.00;105630;1251;1003842;-81
2023/08/31 04:07:11;;;;;;;14.40;11.30;;;;;;;-128.00;-1.00;-1.00;105787;1250;1004366;-80
2023/08/31 04:09:38;;;;;;;22.70;11.60;;;;;;;-128.00;-1.00;-1.00;105675;1251;1004942;-79
2023/08/31 04:12:06;;;;;;;19.20;13.40;;;;;;;-128.00;-1.00;-1.00;105614;1251;1004108;-81
2023/08/31 04:14:32;;;;;;;20.50;13.30;;;;;;;-128.00;-1.00;-1.00;105611;1251;1003815;-80
2023/08/31 04:16:58;;;;;;;23.00;13.70;;;;;;;-128.00;-1.00;-1.00;105701;1249;1004161;-80
2023/08/31 04:19:25;;;;;;;18.00;12.70;;;;;;;-128.00;-1.00;-1.00;105735;1251;1004037;-80
2023/08/31 04:21:51;;;;;;;20.00;13.70;;;;;;;-128.00;-1.00;-1.00;105700;1251;1003549;-80
2023/08/31 04:24:18;;;;;;;17.10;11.90;;;;;;;-128.00;-1.00;-1.00;105693;1250;1004770;-80
2023/08/31 04:26:45;;;;;;;18.30;11.30;;;;;;;-128.00;-1.00;-1.00;105675;1250;1003985;-81
2023/08/31 04:29:12;;;;;;;18.10;12.00;;;;;;;-128.00;-1.00;-1.00;105581;1250;1004179;-80
2023/08/31 04:31:39;;;;;;;18.40;12.00;;;;;;;-128.00;-1.00;-1.00;105716;1249;1005175;-80
2023/08/31 04:34:07;;;;;;;22.00;12.00;;;;;;;-128.00;-1.00;-1.00;105699;1251;1004353;-80
2023/08/31 04:36:33;;;;;;;14.80;10.60;;;;;;;-128.00;-1.00;-1.00;105563;1251;1004518;-80
2023/08/31 04:39:00;;;;;;;15.50;10.50;;;;;;;-128.00;-1.00;-1.00;105694;1249;1004894;-80
2023/08/31 04:41:27;;;;;;;15.20;10.00;;;;;;;-128.00;-1.00;-1.00;105643;1250;1005126;-79
2023/08/31 04:43:53;;;;;;;16.50;10.80;;;;;;;-128.00;-1.00;-1.00;105511;1251;1003611;-80
2023/08/31 04:46:20;;;;;;;34.20;19.10;;;;;;;-128.00;-1.00;-1.00;105487;1251;1004681;-80
2023/08/31 04:48:46;;;;;;;44.40;22.40;;;;;;;-128.00;-1.00;-1.00;105639;1251;1003456;-80
2023/08/31 04:51:39;;;;;;;33.00;16.50;;;;;;;-128.00;-1.00;-1.00;105627;1250;1004479;-80
2023/08/31 04:54:05;;;;;;;27.50;14.70;;;;;;;-128.00;-1.00;-1.00;105598;1254;1061996;-80
2023/08/31 04:56:33;;;;;;;24.40;14.40;;;;;;;-128.00;-1.00;-1.00;105585;1250;1004080;-80
2023/08/31 04:58:59;;;;;;;21.90;13.10;;;;;;;-128.00;-1.00;-1.00;105603;1251;1003561;-80
2023/08/31 05:01:26;;;;;;;21.20;13.40;;;;;;;-128.00;-1.00;-1.00;105574;1250;1004442;-80
2023/08/31 05:03:52;;;;;;;19.20;12.60;;;;;;;-128.00;-1.00;-1.00;105595;1251;1004149;-80
2023/08/31 05:06:20;;;;;;;18.70;12.90;;;;;;;-128.00;-1.00;-1.00;105594;1251;1003427;-80
2023/08/31 05:08:47;;;;;;;19.10;12.60;;;;;;;-128.00;-1.00;-1.00;105519;1251;1004317;-80
2023/08/31 05:11:14;;;;;;;19.60;12.30;;;;;;;-128.00;-1.00;-1.00;105734;1250;1004403;-80
2023/08/31 05:13:42;;;;;;;17.40;10.90;;;;;;;-128.00;-1.00;-1.00;105474;1252;1003558;-81
2023/08/31 05:16:09;;;;;;;17.60;11.90;;;;;;;-128.00;-1.00;-1.00;105752;1250;1004437;-80
2023/08/31 05:18:35;;;;;;;19.80;12.10;;;;;;;-128.00;-1.00;-1.00;105742;1250;1004363;-80
2023/08/31 05:21:03;;;;;;;22.00;13.00;;;;;;;-128.00;-1.00;-1.00;105770;1250;1004720;-80
2023/08/31 05:23:30;;;;;;;17.10;11.50;;;;;;;-128.00;-1.00;-1.00;105743;1251;1004178;-80
2023/08/31 05:25:57;;;;;;;16.90;12.30;;;;;;;-128.00;-1.00;-1.00;105593;1253;1004436;-80
2023/08/31 05:28:23;;;;;;;16.00;11.50;;;;;;;-128.00;-1.00;-1.00;105704;1250;1003682;-80
2023/08/31 05:30:51;;;;;;;18.20;10.90;;;;;;;-128.00;-1.00;-1.00;105759;1251;1003880;-80
2023/08/31 05:33:18;;;;;;;15.30;10.50;;;;;;;-128.00;-1.00;-1.00;105683;1250;1003631;-80
2023/08/31 05:35:45;;;;;;;16.30;10.50;;;;;;;-128.00;-1.00;-1.00;105601;1250;1004155;-80
2023/08/31 05:38:12;;;;;;;16.60;9.60;;;;;;;-128.00;-1.00;-1.00;105521;1251;1004297;-80
2023/08/31 05:40:38;;;;;;;13.50;9.20;;;;;;;-128.00;-1.00;-1.00;105560;1250;1003269;-79
2023/08/31 05:43:05;;;;;;;12.40;8.20;;;;;;;-128.00;-1.00;-1.00;105608;1250;1005313;-79
2023/08/31 05:45:35;;;;;;;13.70;8.90;;;;;;;-128.00;-1.00;-1.00;105600;1251;1004463;-80
2023/08/31 05:48:02;;;;;;;11.10;8.10;;;;;;;-128.00;-1.00;-1.00;105470;1251;1059769;-80
2023/08/31 05:50:30;;;;;;;17.10;10.90;;;;;;;-128.00;-1.00;-1.00;105570;1251;1003852;-80
2023/08/31 05:52:57;;;;;;;13.70;10.90;;;;;;;-128.00;-1.00;-1.00;105580;1252;1004661;-80
2023/08/31 05:55:23;;;;;;;16.70;10.10;;;;;;;-128.00;-1.00;-1.00;105570;1252;1004345;-79
2023/08/31 05:57:50;;;;;;;13.00;8.20;;;;;;;-128.00;-1.00;-1.00;105524;1250;1004370;-80
2023/08/31 06:00:17;;;;;;;13.50;8.10;;;;;;;-128.00;-1.00;-1.00;105432;1251;1004535;-80
2023/08/31 06:02:44;;;;;;;16.20;8.80;;;;;;;-128.00;-1.00;-1.00;105521;1251;1004411;-80
2023/08/31 06:05:16;;;;;;;7.50;5.90;;;;;;;-128.00;-1.00;-1.00;105573;1250;1003566;-80
2023/08/31 06:07:43;;;;;;;10.50;6.00;;;;;;;-128.00;-1.00;-1.00;105461;1251;1060442;-80
2023/08/31 06:10:10;;;;;;;7.00;5.50;;;;;;;-128.00;-1.00;-1.00;105552;1250;1003584;-80
2023/08/31 06:12:37;;;;;;;7.40;5.60;;;;;;;-128.00;-1.00;-1.00;105542;1250;1004826;-81
2023/08/31 06:15:04;;;;;;;7.10;4.80;;;;;;;-128.00;-1.00;-1.00;105557;1250;1004686;-80
2023/08/31 06:17:31;;;;;;;7.50;4.80;;;;;;;-128.00;-1.00;-1.00;105464;1251;1004244;-81
2023/08/31 06:19:57;;;;;;;6.90;4.50;;;;;;;-128.00;-1.00;-1.00;105438;1251;1005406;-80
2023/08/31 06:22:24;;;;;;;4.50;3.60;;;;;;;-128.00;-1.00;-1.00;105521;1251;1003790;-80
2023/08/31 06:24:51;;;;;;;8.60;4.90;;;;;;;-128.00;-1.00;-1.00;105609;1250;1003780;-80
2023/08/31 06:27:18;;;;;;;5.40;4.70;;;;;;;-128.00;-1.00;-1.00;105712;1251;1004207;-80
2023/08/31 06:29:45;;;;;;;11.00;4.70;;;;;;;-128.00;-1.00;-1.00;105775;1250;1004205;-81
2023/08/31 06:32:11;;;;;;;11.60;6.90;;;;;;;-128.00;-1.00;-1.00;105750;1251;1004436;-80
2023/08/31 06:34:38;;;;;;;5.40;3.50;;;;;;;-128.00;-1.00;-1.00;105780;1250;1003787;-81
2023/08/31 06:37:05;;;;;;;6.60;4.40;;;;;;;-128.00;-1.00;-1.00;105755;1251;1004801;-80
2023/08/31 06:39:32;;;;;;;4.60;4.00;;;;;;;-128.00;-1.00;-1.00;105727;1251;1004238;-80
2023/08/31 06:42:00;;;;;;;7.40;3.50;;;;;;;-128.00;-1.00;-1.00;105656;1251;1046515;-80
2023/08/31 06:44:26;;;;;;;3.70;3.00;;;;;;;-128.00;-1.00;-1.00;105678;1250;1004765;-80
2023/08/31 06:46:52;;;;;;;6.20;3.20;;;;;;;-128.00;-1.00;-1.00;105717;1251;1003470;-81
2023/08/31 06:49:19;;;;;;;8.60;3.40;;;;;;;-128.00;-1.00;-1.00;105673;1250;1004924;-81
2023/08/31 06:51:46;;;;;;;6.00;2.70;;;;;;;-128.00;-1.00;-1.00;105670;1251;1004382;-81
2023/08/31 06:54:13;;;;;;;3.50;2.40;;;;;;;-128.00;-1.00;-1.00;105637;1251;1003499;-81
2023/08/31 06:56:39;;;;;;;3.80;2.80;;;;;;;-128.00;-1.00;-1.00;105740;1250;1004406;-80
2023/08/31 06:59:06;;;;;;;4.00;3.20;;;;;;;-128.00;-1.00;-1.00;105646;1251;1004599;-80
2023/08/31 07:01:33;;;;;;;5.10;4.10;;;;;;;-128.00;-1.00;-1.00;105746;1251;1004429;-80
2023/08/31 07:04:00;;;;;;;8.30;3.00;;;;;;;-128.00;-1.00;-1.00;105795;1250;1004829;-81
2023/08/31 07:06:27;;;;;;;4.50;2.40;;;;;;;-128.00;-1.00;-1.00;105659;1251;1003891;-81
2023/08/31 07:08:53;;;;;;;5.70;2.30;;;;;;;-128.00;-1.00;-1.00;105716;1251;1004462;-80
2023/08/31 07:11:20;;;;;;;3.00;2.10;;;;;;;-128.00;-1.00;-1.00;105701;1250;1004627;-81
2023/08/31 07:13:47;;;;;;;2.60;1.90;;;;;;;-128.00;-1.00;-1.00;105731;1250;1003800;-81
2023/08/31 07:16:14;;;;;;;6.30;3.20;;;;;;;-128.00;-1.00;-1.00;105507;1251;1003932;-80
2023/08/31 07:18:40;;;;;;;4.50;2.70;;;;;;;-128.00;-1.00;-1.00;105655;1251;1004502;-81
2023/08/31 07:21:08;;;;;;;4.80;2.30;;;;;;;-128.00;-1.00;-1.00;105715;1251;1003261;-80
2023/08/31 07:23:34;;;;;;;2.80;1.90;;;;;;;-128.00;-1.00;-1.00;105616;1251;1004321;-81
2023/08/31 07:26:01;;;;;;;2.60;2.20;;;;;;;-128.00;-1.00;-1.00;105571;1251;1003811;-81
2023/08/31 07:28:27;;;;;;;6.80;2.00;;;;;;;-128.00;-1.00;-1.00;105552;1249;1004296;-81
2023/08/31 07:31:04;;;;;;;5.00;1.80;;;;;;;-128.00;-1.00;-1.00;105664;1250;1003266;-81
2023/08/31 07:33:31;;;;;;;4.70;3.20;;;;;;;-128.00;-1.00;-1.00;105768;1251;1061908;-81
2023/08/31 07:35:58;;;;;;;4.00;3.00;;;;;;;-128.00;-1.00;-1.00;105786;1250;1004468;-81
2023/08/31 07:38:26;;;;;;;4.30;2.20;;;;;;;-128.00;-1.00;-1.00;105762;1251;1003143;-81
2023/08/31 07:40:53;;;;;;;7.00;4.10;;;;;;;-128.00;-1.00;-1.00;105579;1251;1004217;-81
2023/08/31 07:43:19;;;;;;;2.50;1.60;;;;;;;-128.00;-1.00;-1.00;105515;1252;1003509;-81
2023/08/31 07:45:46;;;;;;;4.40;1.60;;;;;;;-128.00;-1.00;-1.00;105733;1251;1004043;-81
2023/08/31 07:48:12;;;;;;;3.50;1.90;;;;;;;-128.00;-1.00;-1.00;105663;1250;1005232;-81
2023/08/31 07:50:42;;;;;;;4.00;2.10;;;;;;;-128.00;-1.00;-1.00;105779;1250;1004372;-80
2023/08/31 07:53:08;;;;;;;4.30;1.90;;;;;;;-128.00;-1.00;-1.00;105660;1251;1046675;-81
2023/08/31 07:55:38;;;;;;;2.10;1.50;;;;;;;-128.00;-1.00;-1.00;105726;1250;1003661;-81
2023/08/31 07:58:04;;;;;;;4.30;1.90;;;;;;;-128.00;-1.00;-1.00;105820;1250;1061955;-81
2023/08/31 08:00:31;;;;;;;1.80;1.30;;;;;;;-128.00;-1.00;-1.00;105819;1250;1004496;-81
2023/08/31 08:02:57;;;;;;;3.10;2.10;;;;;;;-128.00;-1.00;-1.00;105765;1249;1003921;-81
2023/08/31 08:05:24;;;;;;;4.40;2.80;;;;;;;-128.00;-1.00;-1.00;105736;1251;1004344;-81
2023/08/31 08:07:51;;;;;;;4.30;2.30;;;;;;;-128.00;-1.00;-1.00;105722;1250;1005007;-81
2023/08/31 08:10:18;;;;;;;2.70;2.00;;;;;;;-128.00;-1.00;-1.00;105797;1251;1004374;-81
2023/08/31 08:12:45;;;;;;;6.80;1.80;;;;;;;-128.00;-1.00;-1.00;105763;1251;1004846;-81
2023/08/31 08:15:12;;;;;;;3.80;1.80;;;;;;;-128.00;-1.00;-1.00;105697;1250;1004023;-81
2023/08/31 08:17:38;;;;;;;3.00;2.20;;;;;;;-128.00;-1.00;-1.00;105736;1251;1005069;-80
2023/08/31 08:20:06;;;;;;;7.40;3.70;;;;;;;-128.00;-1.00;-1.00;105764;1250;1004695;-81
2023/08/31 08:22:32;;;;;;;3.90;2.80;;;;;;;-128.00;-1.00;-1.00;105662;1251;1004169;-81
2023/08/31 08:24:59;;;;;;;5.70;2.80;;;;;;;-128.00;-1.00;-1.00;105596;1251;1004371;-81
2023/08/31 08:27:26;;;;;;;5.70;2.40;;;;;;;-128.00;-1.00;-1.00;105583;1251;1003742;-81
2023/08/31 08:29:53;;;;;;;7.60;4.10;;;;;;;-128.00;-1.00;-1.00;105622;1251;1004464;-81
2023/08/31 08:32:20;;;;;;;6.30;3.30;;;;;;;-128.00;-1.00;-1.00;105741;1251;1004577;-81
2023/08/31 08:34:47;;;;;;;4.30;2.20;;;;;;;-128.00;-1.00;-1.00;105683;1251;1003809;-81
2023/08/31 08:37:13;;;;;;;3.50;2.00;;;;;;;-128.00;-1.00;-1.00;105571;1251;1003680;-81
2023/08/31 08:39:40;;;;;;;5.70;2.50;;;;;;;-128.00;-1.00;-1.00;105663;1252;1004291;-81
2023/08/31 08:42:06;;;;;;;2.90;2.20;;;;;;;-128.00;-1.00;-1.00;105719;1250;1004066;-81
2023/08/31 08:44:33;;;;;;;3.80;2.30;;;;;;;-128.00;-1.00;-1.00;105673;1251;1005246;-81
2023/08/31 08:47:00;;;;;;;3.30;1.90;;;;;;;-128.00;-1.00;-1.00;105659;1250;1003902;-80
2023/08/31 08:49:26;;;;;;;5.30;2.90;;;;;;;-128.00;-1.00;-1.00;105670;1250;1003474;-81
2023/08/31 08:51:53;;;;;;;8.10;3.70;;;;;;;-128.00;-1.00;-1.00;105574;1251;1004702;-81
2023/08/31 08:54:20;;;;;;;2.80;2.10;;;;;;;-128.00;-1.00;-1.00;105629;1251;1004357;-81
2023/08/31 08:56:48;;;;;;;;;;;;;;;-128.00;-1.00;-1.00;105460;1253;1047580;-81
2023/08/31 08:59:15;;;;;;;4.20;2.40;;;;;;;-128.00;-1.00;-1.00;105475;1251;1004184;-81
2023/08/31 09:01:41;;;;;;;2.70;2.10;;;;;;;-128.00;-1.00;-1.00;105581;1251;1004843;-80
2023/08/31 09:04:09;;;;;;;1.90;1.60;;;;;;;-128.00;-1.00;-1.00;105312;1251;1004762;-80
2023/08/31 09:06:36;;;;;;;2.00;1.50;;;;;;;-128.00;-1.00;-1.00;105629;1250;1003893;-81
2023/08/31 09:09:03;;;;;;;3.80;2.00;;;;;;;-128.00;-1.00;-1.00;105555;1251;1004026;-81
2023/08/31 09:11:30;;;;;;;4.50;3.20;;;;;;;-128.00;-1.00;-1.00;105605;1250;1004209;-81
2023/08/31 09:13:57;;;;;;;7.80;3.90;;;;;;;-128.00;-1.00;-1.00;105616;1251;1005025;-80
2023/08/31 09:16:24;;;;;;;3.10;2.30;;;;;;;-128.00;-1.00;-1.00;105605;1251;1004743;-80
2023/08/31 09:18:50;;;;;;;3.50;2.30;;;;;;;-128.00;-1.00;-1.00;105466;1251;1004516;-81
2023/08/31 09:21:17;;;;;;;5.00;2.30;;;;;;;-128.00;-1.00;-1.00;105649;1251;1004170;-83
2023/08/31 09:23:47;;;;;;;4.50;3.00;;;;;;;-128.00;-1.00;-1.00;105527;1251;1004376;-81
2023/08/31 09:26:13;;;;;;;4.50;2.10;;;;;;;-128.00;-1.00;-1.00;105609;1250;1057836;-81
2023/08/31 09:28:40;;;;;;;2.90;1.90;;;;;;;-128.00;-1.00;-1.00;105626;1251;1003864;-81
2023/08/31 09:31:07;;;;;;;4.50;2.00;;;;;;;-128.00;-1.00;-1.00;105526;1250;1003943;-81
2023/08/31 09:33:36;;;;;;;3.40;1.80;;;;;;;-128.00;-1.00;-1.00;105566;1250;1004278;-81
2023/08/31 09:36:03;;;;;;;6.10;2.00;;;;;;;-128.00;-1.00;-1.00;105569;1251;1004032;-81
2023/08/31 09:38:31;;;;;;;8.00;3.10;;;;;;;-128.00;-1.00;-1.00;105623;1249;1004434;-81
2023/08/31 09:41:05;;;;;;;5.00;2.80;;;;;;;-128.00;-1.00;-1.00;105620;1250;1004072;-81
2023/08/31 09:43:32;;;;;;;2.50;1.60;;;;;;;-128.00;-1.00;-1.00;105585;1251;1047564;-81
2023/08/31 09:45:59;;;;;;;4.10;2.40;;;;;;;-128.00;-1.00;-1.00;105623;1250;1005668;-80
2023/08/31 09:48:26;;;;;;;4.40;2.00;;;;;;;-128.00;-1.00;-1.00;105629;1251;1005129;-81
2023/08/31 09:50:52;;;;;;;3.90;2.10;;;;;;;-128.00;-1.00;-1.00;105557;1253;1005900;-81
2023/08/31 09:53:19;;;;;;;2.20;1.70;;;;;;;-128.00;-1.00;-1.00;105604;1250;1005283;-81
2023/08/31 09:55:46;;;;;;;3.20;1.80;;;;;;;-128.00;-1.00;-1.00;105404;1253;1004957;-81
2023/08/31 09:58:13;;;;;;;3.60;2.00;;;;;;;-128.00;-1.00;-1.00;105604;1250;1004436;-81
2023/08/31 10:00:39;;;;;;;3.30;2.10;;;;;;;-128.00;-1.00;-1.00;105539;1251;1003936;-81
2023/08/31 10:03:06;;;;;;;2.80;1.90;;;;;;;-128.00;-1.00;-1.00;105591;1251;1004474;-81
2023/08/31 10:05:33;;;;;;;2.70;1.90;;;;;;;-128.00;-1.00;-1.00;105356;1253;1005022;-81
2023/08/31 10:08:00;;;;;;;4.90;2.40;;;;;;;-128.00;-1.00;-1.00;105479;1251;1004647;-81
2023/08/31 10:10:28;;;;;;;4.80;2.40;;;;;;;-128.00;-1.00;-1.00;105601;1251;1003478;-81
2023/08/31 10:12:54;;;;;;;2.20;1.70;;;;;;;-128.00;-1.00;-1.00;105530;1253;1003897;-81
2023/08/31 10:15:20;;;;;;;7.50;1.90;;;;;;;-128.00;-1.00;-1.00;105575;1251;1004606;-81
2023/08/31 10:17:47;;;;;;;2.90;1.90;;;;;;;-128.00;-1.00;-1.00;105556;1251;1004167;-81
2023/08/31 10:20:16;;;;;;;3.70;2.30;;;;;;;-128.00;-1.00;-1.00;105594;1250;1004077;-81
2023/08/31 10:22:43;;;;;;;3.40;2.10;;;;;;;-128.00;-1.00;-1.00;105389;1251;1047685;-81
2023/08/31 10:25:11;;;;;;;4.80;1.90;;;;;;;-128.00;-1.00;-1.00;105467;1251;1005250;-81
2023/08/31 10:27:45;;;;;;;2.40;1.80;;;;;;;-128.00;-1.00;-1.00;105563;1250;1004434;-81
2023/08/31 10:30:30;;;;;;;1.90;1.60;;;;;;;-128.00;-1.00;-1.00;105562;1251;1059278;-81
2023/08/31 10:33:09;;;;;;;2.40;1.80;;;;;;;-128.00;-1.00;-1.00;105646;1251;1046740;-81
2023/08/31 10:35:42;;;;;;;7.40;1.80;;;;;;;-128.00;-1.00;-1.00;105629;1251;1046989;-81
2023/08/31 10:38:16;;;;;;;2.70;2.00;;;;;;;-128.00;-1.00;-1.00;105615;1251;1061389;-81
2023/08/31 10:40:42;;;;;;;3.70;1.50;;;;;;;-128.00;-1.00;-1.00;105610;1250;1058698;-81
2023/08/31 10:43:15;;;;;;;2.10;1.50;;;;;;;-128.00;-1.00;-1.00;105451;1251;1004044;-81
2023/08/31 10:45:45;;;;;;;4.60;2.00;;;;;;;-128.00;-1.00;-1.00;105600;1251;1045172;-81
2023/08/31 10:48:12;;;;;;;2.50;1.80;;;;;;;-128.00;-1.00;-1.00;105471;1254;1046469;-81
2023/08/31 10:50:41;;;;;;;3.30;2.10;;;;;;;-128.00;-1.00;-1.00;105650;1251;1004096;-81
2023/08/31 10:53:09;;;;;;;3.60;2.00;;;;;;;-128.00;-1.00;-1.00;105623;1251;1057841;-81
2023/08/31 10:55:54;;;;;;;4.50;1.80;;;;;;;-128.00;-1.00;-1.00;105557;1251;1004416;-81
2023/08/31 10:58:20;;;;;;;4.20;2.00;;;;;;;-128.00;-1.00;-1.00;105551;1251;1044582;-81
2023/08/31 11:00:53;;;;;;;4.60;2.80;;;;;;;-128.00;-1.00;-1.00;105441;1251;1003335;-81
2023/08/31 11:03:19;;;;;;;3.30;2.60;;;;;;;-128.00;-1.00;-1.00;105617;1252;1061357;-81
2023/08/31 11:05:52;;;;;;;3.80;2.50;;;;;;;-128.00;-1.00;-1.00;105622;1251;1004299;-81
2023/08/31 11:08:26;;;;;;;4.00;2.20;;;;;;;-128.00;-1.00;-1.00;105547;1251;1059947;-81
2023/08/31 11:10:52;;;;;;;4.90;1.80;;;;;;;-128.00;-1.00;-1.00;105535;1251;1045027;-81